createdAt,value
2023-03-06T00:00:15.575Z,20.73
2023-03-06T00:01:15.548Z,20.74
2023-03-06T00:02:15.546Z,20.74
2023-03-06T00:03:15.527Z,20.73
2023-03-06T06:54:57.893Z,21.18
2023-03-06T07:11:57.361Z,21.22
2023-03-06T08:06:09.239Z,21.36
2023-03-06T08:39:53.513Z,21.30
2023-03-06T08:41:53.289Z,21.28
2023-03-06T08:42:53.282Z,21.27
2023-03-06T08:44:53.262Z,21.22
2023-03-06T08:45:53.368Z,21.24
2023-03-06T08:48:53.267Z,21.18
2023-03-06T08:51:53.202Z,21.11
2023-03-06T08:53:56.435Z,21.02
2023-03-06T08:54:53.182Z,20.97
2023-03-06T08:55:53.177Z,20.93
2023-03-06T08:56:53.160Z,20.89
2023-03-06T08:57:53.182Z,20.86
2023-03-06T08:58:53.188Z,20.84
2023-03-06T08:59:53.133Z,20.82
2023-03-06T09:00:53.270Z,20.82
2023-03-06T09:01:53.146Z,20.81
2023-03-06T09:02:53.114Z,20.82
2023-03-06T09:03:53.190Z,20.83
2023-03-06T09:05:53.078Z,20.95
2023-03-06T09:06:54.604Z,20.99
2023-03-06T09:07:53.054Z,21.00
2023-03-06T09:08:53.192Z,21.04
2023-03-06T09:09:53.150Z,21.08
2023-03-06T09:10:53.229Z,21.12
2023-03-06T09:11:53.022Z,21.17
2023-03-06T09:12:54.814Z,21.19
2023-03-06T09:13:53.001Z,21.19
2023-03-06T09:14:53.009Z,21.21
2023-03-06T09:15:52.986Z,21.23
2023-03-06T09:16:53.099Z,21.25
2023-03-06T09:17:53.061Z,21.28
2023-03-06T09:19:52.949Z,21.32
2023-03-06T09:20:52.937Z,21.34
2023-03-06T09:21:52.947Z,21.36
2023-03-06T09:22:52.929Z,21.39
2023-03-06T09:23:53.213Z,21.41
2023-03-06T09:24:52.914Z,21.41
2023-03-06T09:25:53.226Z,21.44
2023-03-06T09:26:52.888Z,21.46
2023-03-06T09:28:08.692Z,21.50
2023-03-06T09:28:52.884Z,21.52
2023-03-06T09:29:53.206Z,21.55
2023-03-06T09:30:52.889Z,21.59
2023-03-06T09:31:52.856Z,21.61
2023-03-06T09:32:53.206Z,21.61
2023-03-06T09:33:52.829Z,21.61
2023-03-06T09:34:52.829Z,21.62
2023-03-06T09:35:52.843Z,21.62
2023-03-06T09:36:57.344Z,21.61
2023-03-06T09:37:52.802Z,21.62
2023-03-06T09:38:52.800Z,21.62
2023-03-06T09:39:53.235Z,21.65
2023-03-06T09:40:52.767Z,21.68
2023-03-06T12:24:51.306Z,23.47
2023-03-06T23:09:45.569Z,20.94
2023-03-06T23:10:45.606Z,20.93
2023-03-06T23:11:45.556Z,20.92
2023-03-06T23:12:45.573Z,20.92
2023-03-06T23:13:45.537Z,20.92
2023-03-06T23:14:45.583Z,20.92
2023-03-06T23:15:45.578Z,20.92
2023-03-06T23:16:45.511Z,20.92
2023-03-06T23:17:45.523Z,20.92
2023-03-06T23:18:45.524Z,20.91
2023-03-06T23:19:45.481Z,20.91
2023-03-06T23:20:45.473Z,20.91
2023-03-06T23:21:45.467Z,20.90
2023-03-06T23:22:45.459Z,20.90
2023-03-06T23:23:45.455Z,20.90
2023-03-06T23:24:45.441Z,20.91
2023-03-06T23:25:45.430Z,20.90
2023-03-06T23:26:45.427Z,20.91
2023-03-06T23:27:45.413Z,20.91
2023-03-06T23:28:45.406Z,20.90
2023-03-06T23:29:45.405Z,20.90
2023-03-06T23:30:45.447Z,20.90
2023-03-06T23:31:45.376Z,20.89
2023-03-06T23:32:46.090Z,20.89
2023-03-06T23:33:45.404Z,20.90
2023-03-06T23:34:45.357Z,20.89
2023-03-06T23:35:45.387Z,20.89
2023-03-06T23:36:45.334Z,20.89
2023-03-06T23:37:45.333Z,20.89
2023-03-06T23:38:45.316Z,20.89
2023-03-06T23:39:45.309Z,20.89
2023-03-06T23:40:45.297Z,20.90
2023-03-06T23:41:45.291Z,20.90
2023-03-06T23:42:45.278Z,20.90
2023-03-06T23:43:45.290Z,20.90
2023-03-06T23:44:45.279Z,20.90
2023-03-06T23:45:45.262Z,20.89
2023-03-06T23:46:45.238Z,20.89
2023-03-06T23:47:45.240Z,20.90
2023-03-06T23:48:45.256Z,20.89
2023-03-06T23:49:45.241Z,20.88
2023-03-06T23:50:45.215Z,20.88
2023-03-06T23:51:45.247Z,20.87
2023-03-06T23:52:45.202Z,20.87
2023-03-06T23:53:45.182Z,20.87
2023-03-06T23:54:45.182Z,20.87
2023-03-06T23:55:45.325Z,20.86
2023-03-06T23:56:45.169Z,20.86
2023-03-06T23:57:45.153Z,20.86
2023-03-06T23:58:45.151Z,20.86
